Time;durP1;ratioP1;P1;durP2;ratioP2;P2;SDS_P1;SDS_P2;PMS_P1;PMS_P2;Temp;Humidity;BMP_temperature;BMP_pressure;BME280_temperature;BME280_humidity;BME280_pressure;Samples;Min_cycle;Max_cycle;Signal;HPM_P1;HPM_P2
2022/11/04 00:02:01;;;;;;;;;;;18.80;99.90;;;;;;5039262;28;19909;-75
2022/11/04 00:04:28;;;;;;;;;;;19.10;99.90;;;;;;5040490;28;20408;-74
2022/11/04 00:06:55;;;;;;;;;;;19.10;99.90;;;;;;5042246;28;19916;-75
2022/11/04 00:09:23;;;;;;;;;;;19.20;99.90;;;;;;5040053;28;20011;-73
2022/11/04 00:14:35;;;;;;;;;;;19.40;99.90;;;;;;5041406;28;19995;-73
2022/11/04 00:17:20;;;;;;;;;;;19.60;99.90;;;;;;5042772;28;19956;-74
2022/11/04 00:30:48;;;;;;;;;;;19.30;99.90;;;;;;5046888;28;19920;-74
2022/11/04 00:33:27;;;;;;;;;;;19.50;99.90;;;;;;5051131;28;19921;-73
2022/11/04 00:35:55;;;;;;;;;;;19.60;99.90;;;;;;5040108;28;20350;-72
2022/11/04 00:38:22;;;;;;;;;;;19.80;99.20;;;;;;5039724;28;20403;-73
2022/11/04 00:40:49;;;;;;;;;;;19.80;99.90;;;;;;5050141;28;20054;-72
2022/11/04 00:43:16;;;;;;;;;;;20.00;98.70;;;;;;5037600;28;19936;-73
2022/11/04 00:45:42;;;;;;;;;;;20.10;98.20;;;;;;5044336;28;19963;-71
2022/11/04 00:48:09;;;;;;;;;;;20.40;98.30;;;;;;5046223;28;19919;-70
2022/11/04 00:50:36;;;;;;;;;;;20.80;97.20;;;;;;5050449;28;19916;-72
2022/11/04 00:53:03;;;;;;;;;;;21.20;96.70;;;;;;5063641;28;19916;-73
2022/11/04 00:55:30;;;;;;;;;;;21.30;95.90;;;;;;5046209;28;19974;-70
2022/11/04 00:57:57;;;;;;;;;;;21.00;95.20;;;;;;5025125;28;19940;-70
2022/11/04 01:00:23;;;;;;;;;;;21.00;95.60;;;;;;5025239;28;20689;-72
2022/11/04 01:02:50;;;;;;;;;;;21.20;94.90;;;;;;5051739;28;19940;-72
2022/11/04 01:05:17;;;;;;;;;;;21.60;95.10;;;;;;5042674;28;19913;-73
2022/11/04 01:07:43;;;;;;;;;;;22.10;93.00;;;;;;5044038;28;19939;-73
2022/11/04 01:10:10;;;;;;;;;;;22.30;93.20;;;;;;5042669;28;20271;-74
2022/11/04 01:12:37;;;;;;;;;;;23.00;92.80;;;;;;5026019;28;19917;-74
2022/11/04 01:15:03;;;;;;;;;;;23.50;90.90;;;;;;5042836;28;20373;-74
2022/11/04 01:17:30;;;;;;;;;;;22.70;91.00;;;;;;5042651;28;20793;-74
2022/11/04 01:19:56;;;;;;;;;;;22.50;91.50;;;;;;5050275;28;19945;-73
2022/11/04 01:22:23;;;;;;;;;;;22.10;91.40;;;;;;5063299;28;19908;-73
2022/11/04 01:24:50;;;;;;;;;;;21.90;91.60;;;;;;5050061;28;19924;-74
2022/11/04 01:27:16;;;;;;;;;;;22.40;91.40;;;;;;5042504;28;20285;-74
2022/11/04 01:29:43;;;;;;;;;;;22.40;90.70;;;;;;5024253;28;19908;-73
2022/11/04 01:32:10;;;;;;;;;;;22.60;90.10;;;;;;5054128;28;19917;-73
2022/11/04 01:34:36;;;;;;;;;;;22.60;90.10;;;;;;5042598;28;19919;-72
2022/11/04 01:37:03;;;;;;;;;;;22.50;89.50;;;;;;5042540;28;19908;-73
2022/11/04 01:39:29;;;;;;;;;;;22.50;89.80;;;;;;5042151;28;19913;-74
2022/11/04 01:41:56;;;;;;;;;;;22.20;90.30;;;;;;5042906;28;19916;-74
2022/11/04 01:44:41;;;;;;;;;;;22.10;90.30;;;;;;5049937;28;19913;-73
2022/11/04 01:47:25;;;;;;;;;;;21.90;90.70;;;;;;5042246;28;19952;-71
2022/11/04 01:49:59;;;;;;;;;;;21.70;91.20;;;;;;5043469;28;19916;-73
2022/11/04 01:52:30;;;;;;;;;;;21.50;91.30;;;;;;5041836;28;19928;-72
2022/11/04 01:54:58;;;;;;;;;;;21.40;91.50;;;;;;5042889;28;19995;-73
2022/11/04 01:57:29;;;;;;;;;;;21.30;91.40;;;;;;5042296;28;19920;-70
2022/11/04 01:59:58;;;;;;;;;;;21.30;91.60;;;;;;5042552;28;19915;-71
2022/11/04 02:02:24;;;;;;;;;;;21.10;91.80;;;;;;5042066;28;20007;-73
2022/11/04 02:04:51;;;;;;;;;;;21.00;91.80;;;;;;5047722;28;19925;-71
2022/11/04 02:07:18;;;;;;;;;;;20.90;92.50;;;;;;5041737;28;20106;-70
2022/11/04 02:09:44;;;;;;;;;;;21.10;92.40;;;;;;5024583;28;19909;-73
2022/11/04 02:14:57;;;;;;;;;;;21.50;91.90;;;;;;5051587;28;20059;-73
2022/11/04 02:17:27;;;;;;;;;;;21.60;91.60;;;;;;5041135;28;20218;-72
2022/11/04 02:20:11;;;;;;;;;;;21.60;91.40;;;;;;5042275;28;19909;-72
2022/11/04 02:22:38;;;;;;;;;;;21.70;91.10;;;;;;5049353;28;19908;-71
2022/11/04 02:25:14;;;;;;;;;;;21.90;91.00;;;;;;5048664;28;20365;-71
2022/11/04 02:27:46;;;;;;;;;;;22.20;90.80;;;;;;5041354;28;20353;-73
2022/11/04 02:30:13;;;;;;;;;;;22.30;90.40;;;;;;5041536;28;19909;-72
2022/11/04 02:32:49;;;;;;;;;;;22.90;88.10;;;;;;5042101;28;20469;-73
2022/11/04 02:35:27;;;;;;;;;;;23.10;87.60;;;;;;5042062;28;19992;-74
2022/11/04 02:37:54;;;;;;;;;;;23.70;87.90;;;;;;5042052;28;19909;-72
2022/11/04 02:40:23;;;;;;;;;;;24.00;86.00;;;;;;5042104;28;19909;-72
2022/11/04 02:42:58;;;;;;;;;;;24.30;84.70;;;;;;5046836;28;19920;-72
2022/11/04 02:45:25;;;;;;;;;;;24.40;84.90;;;;;;5023353;28;19921;-73
2022/11/04 02:47:54;;;;;;;;;;;24.30;86.40;;;;;;5041507;28;19919;-71
2022/11/04 02:50:33;;;;;;;;;;;24.40;83.80;;;;;;5041580;28;19913;-72
2022/11/04 02:53:13;;;;;;;;;;;24.10;85.20;;;;;;5041922;28;19924;-70
2022/11/04 02:55:44;;;;;;;;;;;23.90;85.30;;;;;;5041763;28;19908;-73
2022/11/04 02:58:20;;;;;;;;;;;23.60;86.30;;;;;;5040945;28;19908;-73
2022/11/04 03:00:49;;;;;;;;;;;23.80;86.00;;;;;;5041447;28;19909;-70
2022/11/04 03:03:25;;;;;;;;;;;23.50;86.00;;;;;;5040115;28;19917;-71
2022/11/04 03:05:52;;;;;;;;;;;23.80;84.40;;;;;;5042081;28;20420;-72
2022/11/04 03:08:26;;;;;;;;;;;23.70;83.70;;;;;;5060295;28;20410;-71
2022/11/04 03:10:55;;;;;;;;;;;23.90;83.30;;;;;;5061667;28;19909;-70
2022/11/04 03:13:26;;;;;;;;;;;24.40;83.40;;;;;;5061352;28;19956;-72
2022/11/04 03:16:04;;;;;;;;;;;24.60;82.60;;;;;;5023380;28;19909;-70
2022/11/04 03:19:03;;;;;;;;;;;25.10;83.80;;;;;;5040114;28;19908;-70
2022/11/04 03:21:32;;;;;;;;;;;26.30;80.30;;;;;;5017462;28;19939;-70
2022/11/04 03:23:59;;;;;;;;;;;26.70;77.00;;;;;;5036408;28;19959;-67
2022/11/04 03:26:40;;;;;;;;;;;26.10;76.70;;;;;;5040803;28;19948;-67
2022/11/04 03:29:26;;;;;;;;;;;26.20;78.30;;;;;;5041331;28;19908;-66
2022/11/04 03:32:02;;;;;;;;;;;27.30;76.70;;;;;;5023030;28;20335;-67
2022/11/04 03:34:29;;;;;;;;;;;29.10;71.70;;;;;;5040614;28;19913;-68
2022/11/04 03:36:56;;;;;;;;;;;29.10;70.00;;;;;;5040966;28;19913;-69
2022/11/04 03:39:23;;;;;;;;;;;28.70;70.60;;;;;;5040885;28;20361;-68
2022/11/04 03:41:55;;;;;;;;;;;27.90;70.80;;;;;;5041068;28;19960;-68
2022/11/04 03:44:22;;;;;;;;;;;26.80;74.00;;;;;;5040663;28;19913;-72
2022/11/04 03:46:49;;;;;;;;;;;26.00;74.90;;;;;;5039783;28;19909;-70
2022/11/04 03:49:16;;;;;;;;;;;25.80;76.70;;;;;;5038411;28;20020;-70
2022/11/04 03:51:43;;;;;;;;;;;27.20;74.20;;;;;;5041116;28;19920;-72
2022/11/04 03:54:09;;;;;;;;;;;27.80;71.90;;;;;;5043363;28;19963;-71
2022/11/04 03:56:45;;;;;;;;;;;27.90;71.30;;;;;;5021624;28;19952;-71
2022/11/04 03:59:14;;;;;;;;;;;27.50;72.20;;;;;;5040787;28;20412;-71
2022/11/04 04:02:05;;;;;;;;;;;28.50;71.20;;;;;;5021877;28;20157;-71
2022/11/04 04:04:35;;;;;;;;;;;28.10;69.50;;;;;;5049629;28;20433;-72
2022/11/04 04:07:07;;;;;;;;;;;27.80;71.70;;;;;;5046010;28;19917;-72
2022/11/04 04:09:34;;;;;;;;;;;28.50;69.40;;;;;;5029665;28;20354;-72
2022/11/04 04:12:06;;;;;;;;;;;29.00;67.70;;;;;;5041152;28;19921;-73
2022/11/04 04:14:39;;;;;;;;;;;30.30;67.70;;;;;;5055615;28;19916;-73
2022/11/04 04:17:08;;;;;;;;;;;31.70;63.10;;;;;;5042535;28;19921;-73
2022/11/04 04:19:36;;;;;;;;;;;31.10;62.60;;;;;;5043278;28;19909;-72
2022/11/04 04:22:28;;;;;;;;;;;30.50;63.60;;;;;;5042624;28;19920;-72
2022/11/04 04:27:42;;;;;;;;;;;27.80;66.40;;;;;;5044543;28;20325;-73
2022/11/04 04:30:10;;;;;;;;;;;27.80;67.70;;;;;;5043576;28;19916;-73
2022/11/04 04:32:38;;;;;;;;;;;27.60;67.80;;;;;;5044076;28;20408;-72
2022/11/04 04:37:51;;;;;;;;;;;27.20;69.80;;;;;;5044916;28;20035;-73
2022/11/04 04:45:51;;;;;;;;;;;27.40;68.30;;;;;;5045898;28;20015;-72
2022/11/04 04:48:18;;;;;;;;;;;27.90;67.80;;;;;;5061945;28;20018;-72
2022/11/04 04:50:47;;;;;;;;;;;28.20;67.40;;;;;;5052986;28;20175;-73
2022/11/04 04:53:14;;;;;;;;;;;28.50;66.80;;;;;;5043255;28;20279;-72
2022/11/04 04:55:41;;;;;;;;;;;27.60;67.20;;;;;;5043704;28;19935;-71
2022/11/04 04:58:07;;;;;;;;;;;26.80;68.80;;;;;;5045605;28;19917;-71
2022/11/04 05:00:34;;;;;;;;;;;26.10;71.00;;;;;;5058909;28;19913;-71
2022/11/04 05:03:01;;;;;;;;;;;25.80;72.70;;;;;;5042920;28;20002;-71
2022/11/04 05:05:27;;;;;;;;;;;26.10;71.90;;;;;;5043948;28;19909;-72
2022/11/04 05:07:54;;;;;;;;;;;27.10;70.20;;;;;;5043655;28;19920;-70
2022/11/04 05:10:21;;;;;;;;;;;28.60;68.30;;;;;;5043619;28;20296;-70
2022/11/04 05:15:32;;;;;;;;;;;31.00;64.50;;;;;;5044746;28;19923;-70
2022/11/04 05:18:00;;;;;;;;;;;30.80;62.80;;;;;;5045085;28;20379;-72
2022/11/04 05:20:27;;;;;;;;;;;30.60;63.20;;;;;;5053188;28;19920;-72
2022/11/04 05:22:54;;;;;;;;;;;29.60;64.10;;;;;;5045986;28;19948;-71
2022/11/04 05:25:21;;;;;;;;;;;30.20;63.80;;;;;;5042120;28;19909;-73
2022/11/04 05:27:47;;;;;;;;;;;28.70;64.80;;;;;;5041106;28;19976;-72
2022/11/04 05:30:14;;;;;;;;;;;27.80;66.20;;;;;;5042480;28;20392;-72
2022/11/04 05:32:40;;;;;;;;;;;28.00;65.60;;;;;;5043390;28;19925;-72
2022/11/04 05:35:07;;;;;;;;;;;28.30;66.40;;;;;;5041947;28;19995;-72
2022/11/04 05:37:34;;;;;;;;;;;28.60;66.00;;;;;;5041105;28;19912;-73
2022/11/04 05:40:00;;;;;;;;;;;28.10;65.60;;;;;;5039693;28;19917;-72
2022/11/04 05:42:28;;;;;;;;;;;26.90;67.00;;;;;;5040251;28;19916;-71
2022/11/04 05:44:55;;;;;;;;;;;26.60;70.20;;;;;;5040354;28;20395;-71
2022/11/04 05:47:21;;;;;;;;;;;26.70;69.60;;;;;;5041082;28;19952;-71
2022/11/04 05:49:48;;;;;;;;;;;26.70;69.20;;;;;;5044985;28;19913;-69
2022/11/04 05:52:14;;;;;;;;;;;26.80;68.70;;;;;;5040514;28;20016;-71
2022/11/04 05:54:41;;;;;;;;;;;26.40;69.20;;;;;;5037982;28;20415;-72
2022/11/04 05:57:08;;;;;;;;;;;26.80;68.40;;;;;;5035831;28;19917;-71
2022/11/04 05:59:35;;;;;;;;;;;26.80;68.70;;;;;;5041787;28;20362;-71
2022/11/04 06:02:02;;;;;;;;;;;27.70;68.40;;;;;;5038819;28;19913;-72
2022/11/04 06:04:29;;;;;;;;;;;28.20;66.70;;;;;;5039862;28;19964;-69
2022/11/04 06:06:56;;;;;;;;;;;28.20;66.60;;;;;;5040673;28;20469;-72
2022/11/04 06:09:37;;;;;;;;;;;27.80;66.80;;;;;;5040802;28;19986;-71
2022/11/04 06:12:08;;;;;;;;;;;27.60;67.20;;;;;;5038036;28;19921;-72
2022/11/04 06:14:35;;;;;;;;;;;26.60;68.40;;;;;;5040757;28;19917;-72
2022/11/04 06:17:02;;;;;;;;;;;26.00;70.30;;;;;;5040383;28;19966;-72
2022/11/04 06:19:29;;;;;;;;;;;25.80;71.30;;;;;;5021932;28;20273;-73
2022/11/04 06:21:55;;;;;;;;;;;25.70;71.20;;;;;;5037590;28;19939;-73
2022/11/04 06:24:22;;;;;;;;;;;25.70;71.40;;;;;;5038207;28;19967;-72
2022/11/04 06:26:49;;;;;;;;;;;24.90;72.20;;;;;;5023045;28;20203;-73
2022/11/04 06:29:15;;;;;;;;;;;24.40;75.00;;;;;;5037158;28;19948;-72
2022/11/04 06:31:42;;;;;;;;;;;24.30;74.60;;;;;;5036891;28;19947;-73
2022/11/04 06:34:08;;;;;;;;;;;23.90;75.70;;;;;;5039458;28;19921;-73
2022/11/04 06:36:35;;;;;;;;;;;23.40;77.20;;;;;;5039083;28;19916;-72
2022/11/04 06:39:03;;;;;;;;;;;22.90;78.60;;;;;;5041376;28;19912;-72
2022/11/04 06:41:30;;;;;;;;;;;22.50;79.50;;;;;;5061030;28;20155;-71
2022/11/04 06:43:57;;;;;;;;;;;22.20;81.30;;;;;;5060419;28;19915;-71
2022/11/04 06:46:25;;;;;;;;;;;21.90;81.70;;;;;;5040091;28;19915;-71
2022/11/04 06:48:52;;;;;;;;;;;21.80;82.50;;;;;;5052465;28;19924;-71
2022/11/04 06:51:18;;;;;;;;;;;21.90;82.30;;;;;;5043837;28;20042;-74
2022/11/04 06:53:45;;;;;;;;;;;21.80;82.60;;;;;;5050581;28;20286;-72
2022/11/04 06:56:11;;;;;;;;;;;21.70;83.30;;;;;;5041291;28;19919;-70
2022/11/04 06:58:38;;;;;;;;;;;21.40;83.10;;;;;;5041453;28;19915;-71
2022/11/04 07:01:05;;;;;;;;;;;21.30;83.40;;;;;;5022841;28;20323;-70
2022/11/04 07:03:31;;;;;;;;;;;21.20;84.30;;;;;;5040711;28;19931;-71
2022/11/04 07:05:58;;;;;;;;;;;21.30;84.70;;;;;;5041489;28;20436;-70
2022/11/04 07:08:25;;;;;;;;;;;21.20;85.70;;;;;;5038412;28;19992;-71
2022/11/04 07:10:54;;;;;;;;;;;21.00;85.70;;;;;;5041486;28;19960;-72
2022/11/04 07:13:20;;;;;;;;;;;20.90;86.10;;;;;;5057710;28;20112;-74
2022/11/04 07:15:47;;;;;;;;;;;20.80;87.00;;;;;;5041956;28;19982;-72
2022/11/04 07:18:13;;;;;;;;;;;20.80;87.00;;;;;;5040063;28;19919;-72
2022/11/04 07:20:41;;;;;;;;;;;21.00;86.40;;;;;;5039161;28;19913;-72
2022/11/04 07:23:07;;;;;;;;;;;21.10;86.80;;;;;;5041018;28;19928;-71
2022/11/04 07:25:34;;;;;;;;;;;20.80;87.80;;;;;;5039457;28;19963;-73
2022/11/04 07:28:00;;;;;;;;;;;20.60;89.10;;;;;;5048815;28;19960;-72
2022/11/04 07:30:27;;;;;;;;;;;20.60;89.40;;;;;;5037935;28;19920;-72
2022/11/04 07:32:54;;;;;;;;;;;20.70;89.30;;;;;;5040200;28;19943;-73
2022/11/04 07:35:20;;;;;;;;;;;20.60;89.40;;;;;;5039111;28;20365;-74
2022/11/04 07:37:47;;;;;;;;;;;20.60;89.70;;;;;;5039682;28;19916;-73
2022/11/04 07:40:13;;;;;;;;;;;20.70;88.90;;;;;;5039357;28;19936;-71
2022/11/04 07:42:40;;;;;;;;;;;20.70;89.40;;;;;;5039567;28;19951;-73
2022/11/04 07:45:07;;;;;;;;;;;20.50;89.80;;;;;;5042209;28;19943;-72
2022/11/04 07:47:34;;;;;;;;;;;20.40;90.00;;;;;;5038833;28;19909;-71
2022/11/04 07:50:01;;;;;;;;;;;20.30;90.00;;;;;;5027622;28;19909;-71
2022/11/04 07:52:27;;;;;;;;;;;20.20;90.10;;;;;;5038539;28;19931;-72
2022/11/04 07:54:54;;;;;;;;;;;20.20;90.20;;;;;;5039589;28;19920;-72
2022/11/04 07:57:21;;;;;;;;;;;20.00;90.70;;;;;;5039535;28;20408;-72
2022/11/04 07:59:47;;;;;;;;;;;20.00;91.00;;;;;;5039227;28;19953;-72
2022/11/04 08:02:14;;;;;;;;;;;20.00;91.30;;;;;;5039267;28;19913;-73
2022/11/04 08:04:41;;;;;;;;;;;19.90;91.30;;;;;;5039223;28;19920;-71
2022/11/04 08:07:08;;;;;;;;;;;19.80;91.60;;;;;;5040795;28;19937;-71
2022/11/04 08:09:38;;;;;;;;;;;19.80;91.90;;;;;;5037275;28;19997;-71
2022/11/04 08:12:05;;;;;;;;;;;19.70;91.50;;;;;;5039045;28;19970;-75
2022/11/04 08:14:31;;;;;;;;;;;19.60;91.90;;;;;;5037888;28;20079;-75
2022/11/04 08:16:58;;;;;;;;;;;19.40;92.20;;;;;;5039709;28;20365;-73
2022/11/04 08:19:25;;;;;;;;;;;19.20;92.60;;;;;;5039545;28;20387;-73
2022/11/04 08:21:52;;;;;;;;;;;19.20;92.70;;;;;;5039160;28;19913;-71
2022/11/04 08:24:19;;;;;;;;;;;19.10;92.90;;;;;;5039968;28;19909;-73
2022/11/04 08:26:46;;;;;;;;;;;19.00;93.30;;;;;;5039626;28;19909;-74
2022/11/04 08:29:12;;;;;;;;;;;18.90;93.60;;;;;;5040725;28;19909;-72
2022/11/04 08:31:39;;;;;;;;;;;19.00;93.70;;;;;;5039473;28;19920;-70
2022/11/04 08:34:07;;;;;;;;;;;18.90;93.80;;;;;;5039102;28;19917;-72
2022/11/04 08:36:39;;;;;;;;;;;18.90;93.70;;;;;;5037665;28;19909;-72
2022/11/04 08:39:07;;;;;;;;;;;18.90;93.80;;;;;;5034342;28;19913;-72
2022/11/04 08:41:35;;;;;;;;;;;18.90;94.00;;;;;;5038202;28;19912;-72
2022/11/04 08:44:03;;;;;;;;;;;18.90;94.20;;;;;;5036729;28;19916;-73
2022/11/04 08:46:32;;;;;;;;;;;18.90;94.10;;;;;;5039715;28;19909;-73
2022/11/04 08:48:59;;;;;;;;;;;18.90;93.80;;;;;;5039849;28;19909;-71
2022/11/04 08:51:26;;;;;;;;;;;18.80;93.70;;;;;;5024263;28;19913;-72
2022/11/04 08:53:53;;;;;;;;;;;18.80;93.90;;;;;;5039287;28;19947;-71
2022/11/04 08:56:24;;;;;;;;;;;18.80;94.00;;;;;;5040338;28;20350;-71
2022/11/04 08:58:50;;;;;;;;;;;18.80;94.20;;;;;;5039287;28;19909;-73
2022/11/04 09:01:17;;;;;;;;;;;18.70;94.10;;;;;;5058483;28;20511;-70
2022/11/04 09:03:44;;;;;;;;;;;18.70;94.10;;;;;;5061975;28;20000;-71
2022/11/04 09:06:12;;;;;;;;;;;18.60;94.40;;;;;;5024188;28;19913;-71
2022/11/04 09:08:39;;;;;;;;;;;18.60;94.60;;;;;;5050990;28;19912;-72
2022/11/04 09:11:07;;;;;;;;;;;18.60;94.60;;;;;;5046605;28;19963;-74
2022/11/04 09:13:33;;;;;;;;;;;18.60;94.80;;;;;;5043277;28;19925;-71
2022/11/04 09:16:00;;;;;;;;;;;18.60;94.60;;;;;;5042651;28;19962;-72
2022/11/04 09:18:26;;;;;;;;;;;18.50;94.30;;;;;;5042910;28;19932;-74
2022/11/04 09:20:53;;;;;;;;;;;18.50;93.80;;;;;;5042237;28;19912;-74
2022/11/04 09:23:20;;;;;;;;;;;18.40;94.10;;;;;;5043702;28;19915;-71
2022/11/04 09:25:46;;;;;;;;;;;18.40;94.00;;;;;;5041733;28;20361;-70
2022/11/04 09:28:13;;;;;;;;;;;18.40;93.60;;;;;;5043996;28;19934;-72
2022/11/04 09:30:39;;;;;;;;;;;18.30;94.00;;;;;;5037091;28;20281;-71
2022/11/04 09:33:06;;;;;;;;;;;18.30;93.60;;;;;;5024822;28;19917;-71
2022/11/04 09:35:33;;;;;;;;;;;18.20;93.70;;;;;;5041743;28;19917;-72
2022/11/04 09:38:00;;;;;;;;;;;18.20;94.20;;;;;;5041528;28;19908;-72
2022/11/04 09:40:28;;;;;;;;;;;18.20;94.20;;;;;;5042624;28;19909;-71
2022/11/04 09:42:54;;;;;;;;;;;18.30;94.40;;;;;;5043431;28;19920;-72
2022/11/04 09:45:24;;;;;;;;;;;18.30;94.40;;;;;;5046986;28;19932;-70
2022/11/04 09:47:52;;;;;;;;;;;18.30;94.10;;;;;;5040713;28;20035;-72
2022/11/04 09:50:30;;;;;;;;;;;18.40;94.20;;;;;;5043207;28;19962;-73
2022/11/04 09:53:02;;;;;;;;;;;18.30;94.40;;;;;;5041732;28;19924;-73
2022/11/04 09:55:38;;;;;;;;;;;18.30;94.80;;;;;;5042614;28;19916;-71
2022/11/04 09:58:07;;;;;;;;;;;18.30;94.60;;;;;;5042669;28;20369;-72
2022/11/04 10:00:36;;;;;;;;;;;18.20;95.00;;;;;;5042145;28;20716;-72
2022/11/04 10:03:11;;;;;;;;;;;18.20;95.20;;;;;;5041220;28;20044;-71
2022/11/04 10:05:38;;;;;;;;;;;18.30;95.00;;;;;;5024227;28;19956;-71
2022/11/04 10:08:15;;;;;;;;;;;18.30;95.00;;;;;;5041665;28;20249;-71
2022/11/04 10:10:47;;;;;;;;;;;18.30;94.90;;;;;;5042043;28;19913;-70
2022/11/04 10:13:19;;;;;;;;;;;18.40;95.00;;;;;;5041328;28;19924;-71
2022/11/04 10:15:56;;;;;;;;;;;18.40;95.10;;;;;;5041971;28;19909;-71
2022/11/04 10:18:34;;;;;;;;;;;18.30;95.10;;;;;;5041287;28;20321;-72
2022/11/04 10:21:16;;;;;;;;;;;18.30;95.10;;;;;;5042587;28;19919;-72
2022/11/04 10:23:44;;;;;;;;;;;18.40;95.20;;;;;;5052696;28;19913;-71
2022/11/04 10:26:23;;;;;;;;;;;18.30;95.40;;;;;;5021564;28;19920;-71
2022/11/04 10:29:10;;;;;;;;;;;18.30;95.10;;;;;;5021967;28;20409;-72
2022/11/04 10:31:38;;;;;;;;;;;18.30;94.90;;;;;;5025762;28;19923;-72
2022/11/04 10:34:07;;;;;;;;;;;18.20;94.90;;;;;;5041873;28;19928;-71
2022/11/04 10:36:35;;;;;;;;;;;18.10;95.00;;;;;;5041925;28;20347;-71
2022/11/04 10:39:03;;;;;;;;;;;18.00;95.30;;;;;;5041906;28;20011;-71
2022/11/04 10:41:33;;;;;;;;;;;18.00;95.50;;;;;;5040662;28;19909;-70
2022/11/04 10:44:08;;;;;;;;;;;17.90;95.60;;;;;;5041557;28;20369;-70
2022/11/04 10:46:50;;;;;;;;;;;17.90;95.70;;;;;;5042049;28;20296;-72
2022/11/04 10:49:32;;;;;;;;;;;17.90;96.00;;;;;;5040549;28;19912;-72
2022/11/04 10:51:59;;;;;;;;;;;17.80;96.00;;;;;;5043235;28;20634;-71
2022/11/04 10:54:26;;;;;;;;;;;17.70;96.40;;;;;;5052616;28;20399;-71
2022/11/04 10:56:53;;;;;;;;;;;17.70;96.40;;;;;;5041013;28;20385;-72
2022/11/04 10:59:23;;;;;;;;;;;17.80;96.60;;;;;;5040333;28;19913;-71
2022/11/04 11:01:54;;;;;;;;;;;17.70;96.70;;;;;;5053778;28;19913;-70
2022/11/04 11:04:25;;;;;;;;;;;17.80;96.70;;;;;;5055131;28;19925;-71
2022/11/04 11:06:52;;;;;;;;;;;17.70;96.60;;;;;;5042521;28;19920;-71
2022/11/04 11:09:29;;;;;;;;;;;17.70;96.70;;;;;;5041085;28;19913;-71
2022/11/04 11:12:12;;;;;;;;;;;17.70;96.90;;;;;;5040721;28;19908;-70
2022/11/04 11:14:40;;;;;;;;;;;17.70;96.80;;;;;;5040296;28;19948;-72
2022/11/04 11:17:16;;;;;;;;;;;17.60;97.00;;;;;;5041226;28;20365;-69
2022/11/04 11:19:51;;;;;;;;;;;17.60;97.00;;;;;;5040356;28;19913;-72
2022/11/04 11:22:36;;;;;;;;;;;17.60;97.40;;;;;;5041614;28;19909;-71
2022/11/04 11:25:20;;;;;;;;;;;17.60;97.50;;;;;;5040332;28;19913;-71
2022/11/04 11:27:49;;;;;;;;;;;17.60;97.70;;;;;;5040004;28;19909;-71
2022/11/04 11:30:42;;;;;;;;;;;17.50;97.60;;;;;;5041495;28;19909;-71
2022/11/04 11:33:15;;;;;;;;;;;17.50;97.80;;;;;;5052322;28;19917;-70
2022/11/04 11:35:48;;;;;;;;;;;17.50;97.80;;;;;;5026118;28;19913;-70
2022/11/04 11:38:17;;;;;;;;;;;17.60;98.10;;;;;;5041554;28;19909;-72
2022/11/04 11:40:45;;;;;;;;;;;17.50;98.10;;;;;;5040396;28;19909;-74
2022/11/04 11:43:26;;;;;;;;;;;17.50;98.20;;;;;;5041567;28;19920;-70
2022/11/04 11:45:56;;;;;;;;;;;17.60;98.40;;;;;;5040721;28;19963;-71
2022/11/04 11:48:38;;;;;;;;;;;17.50;98.20;;;;;;5061046;28;20328;-75
2022/11/04 11:51:06;;;;;;;;;;;17.60;98.50;;;;;;5042935;28;19913;-70
2022/11/04 11:53:37;;;;;;;;;;;17.50;98.60;;;;;;5040043;28;19920;-71
2022/11/04 11:56:09;;;;;;;;;;;17.60;98.80;;;;;;5039469;28;19916;-70
2022/11/04 11:58:41;;;;;;;;;;;17.50;98.90;;;;;;5040688;28;20320;-71
2022/11/04 12:01:11;;;;;;;;;;;17.50;99.20;;;;;;5039411;28;19921;-71
2022/11/04 12:03:41;;;;;;;;;;;17.50;99.40;;;;;;5040238;28;20683;-71
2022/11/04 12:06:13;;;;;;;;;;;17.40;99.50;;;;;;5039743;28;19936;-72
2022/11/04 12:08:55;;;;;;;;;;;17.40;99.70;;;;;;5038405;28;19996;-72
2022/11/04 12:11:47;;;;;;;;;;;17.40;99.80;;;;;;5039464;28;20058;-72
2022/11/04 12:14:20;;;;;;;;;;;17.40;99.90;;;;;;5036429;28;19928;-72
2022/11/04 12:17:02;;;;;;;;;;;17.30;99.90;;;;;;5040723;28;19974;-69
2022/11/04 12:19:30;;;;;;;;;;;17.30;99.90;;;;;;5041049;28;19920;-70
2022/11/04 12:22:19;;;;;;;;;;;17.30;99.90;;;;;;5053838;22;19924;-66
2022/11/04 12:25:10;;;;;;;;;;;17.20;99.90;;;;;;5027056;28;19913;-67
2022/11/04 12:27:37;;;;;;;;;;;17.30;99.90;;;;;;5040838;28;19913;-66
2022/11/04 12:30:06;;;;;;;;;;;17.20;99.90;;;;;;5040603;28;20518;-66
2022/11/04 12:32:55;;;;;;;;;;;17.20;99.90;;;;;;5040238;28;19960;-66
2022/11/04 12:35:22;;;;;;;;;;;17.20;99.90;;;;;;5034057;28;20007;-67
2022/11/04 12:38:07;;;;;;;;;;;17.20;99.90;;;;;;5024561;28;19913;-64
2022/11/04 12:40:33;;;;;;;;;;;17.10;99.90;;;;;;5028580;28;19955;-68
2022/11/04 12:43:06;;;;;;;;;;;17.10;99.90;;;;;;5044800;28;20404;-66
2022/11/04 12:45:43;;;;;;;;;;;17.10;99.90;;;;;;5043723;28;19944;-68
2022/11/04 12:48:11;;;;;;;;;;;17.10;99.90;;;;;;5044441;28;20341;-66
2022/11/04 12:50:39;;;;;;;;;;;17.10;99.90;;;;;;5025948;28;19966;-66
2022/11/04 12:53:18;;;;;;;;;;;17.00;99.90;;;;;;5044502;28;19939;-67
2022/11/04 12:55:45;;;;;;;;;;;17.00;99.90;;;;;;5042614;28;19908;-66
2022/11/04 12:58:20;;;;;;;;;;;17.00;99.90;;;;;;5043365;28;19913;-67
2022/11/04 13:00:49;;;;;;;;;;;16.90;99.90;;;;;;5043579;28;19935;-68
2022/11/04 13:03:15;;;;;;;;;;;17.00;99.90;;;;;;5043735;28;19955;-68
2022/11/04 13:05:59;;;;;;;;;;;16.90;99.90;;;;;;5043751;28;20330;-67
2022/11/04 13:08:25;;;;;;;;;;;16.90;99.90;;;;;;5043648;28;19944;-66
2022/11/04 13:10:58;;;;;;;;;;;16.90;99.90;;;;;;5044032;28;19909;-67
2022/11/04 13:13:28;;;;;;;;;;;16.90;99.90;;;;;;5043320;28;20011;-65
2022/11/04 13:15:59;;;;;;;;;;;16.90;99.90;;;;;;5035309;28;19920;-68
2022/11/04 13:18:29;;;;;;;;;;;16.80;99.90;;;;;;5041043;28;19913;-69
2022/11/04 13:21:32;;;;;;;;;;;16.80;99.90;;;;;;5043509;28;20007;-68
2022/11/04 13:23:58;;;;;;;;;;;16.70;99.90;;;;;;4982425;28;19960;-68
2022/11/04 13:26:25;;;;;;;;;;;16.70;99.90;;;;;;5030785;28;19963;-68
2022/11/04 13:29:11;;;;;;;;;;;16.70;99.90;;;;;;5043510;28;19909;-69
2022/11/04 13:31:46;;;;;;;;;;;16.70;99.90;;;;;;5042329;28;20710;-68
2022/11/04 13:34:31;;;;;;;;;;;16.60;99.90;;;;;;5043494;28;19921;-66
2022/11/04 13:37:10;;;;;;;;;;;16.50;99.90;;;;;;5042941;28;19913;-65
2022/11/04 13:39:48;;;;;;;;;;;16.50;99.90;;;;;;5043174;28;19974;-65
2022/11/04 13:42:25;;;;;;;;;;;16.40;99.90;;;;;;5025560;28;19909;-66
2022/11/04 13:44:55;;;;;;;;;;;16.30;99.90;;;;;;5042952;28;19913;-66
2022/11/04 13:47:25;;;;;;;;;;;16.20;99.90;;;;;;5043043;28;19936;-67
2022/11/04 13:49:54;;;;;;;;;;;16.20;99.90;;;;;;5043853;28;19909;-67
2022/11/04 13:52:21;;;;;;;;;;;16.20;99.90;;;;;;5043591;28;19955;-66
2022/11/04 13:54:53;;;;;;;;;;;16.20;99.90;;;;;;5043169;28;19909;-66
2022/11/04 13:57:20;;;;;;;;;;;16.10;99.90;;;;;;5042839;28;19916;-66
2022/11/04 14:00:05;;;;;;;;;;;16.20;99.90;;;;;;5042858;28;19909;-67
2022/11/04 14:02:52;;;;;;;;;;;16.10;99.90;;;;;;5042277;28;19909;-64
2022/11/04 14:05:28;;;;;;;;;;;16.10;99.90;;;;;;5042362;28;19917;-64
2022/11/04 14:08:00;;;;;;;;;;;16.10;99.90;;;;;;5042984;28;19913;-64
2022/11/04 14:10:38;;;;;;;;;;;16.00;99.90;;;;;;5041240;28;19908;-64
2022/11/04 14:13:23;;;;;;;;;;;16.10;99.90;;;;;;5042436;28;19920;-64
2022/11/04 14:15:58;;;;;;;;;;;16.00;99.90;;;;;;5042816;28;19909;-64
2022/11/04 14:18:27;;;;;;;;;;;16.00;99.90;;;;;;5043119;28;19955;-64
2022/11/04 14:21:04;;;;;;;;;;;16.00;99.90;;;;;;5033876;28;19913;-66
2022/11/04 14:23:32;;;;;;;;;;;16.00;99.90;;;;;;5008155;28;19920;-66
2022/11/04 14:26:00;;;;;;;;;;;15.90;99.90;;;;;;5042041;28;19913;-66
2022/11/04 14:28:28;;;;;;;;;;;15.90;99.90;;;;;;5042705;28;19908;-64
2022/11/04 14:31:02;;;;;;;;;;;15.90;99.90;;;;;;5043229;28;19995;-67
2022/11/04 14:33:33;;;;;;;;;;;15.80;99.90;;;;;;5042839;28;19925;-68
2022/11/04 14:36:18;;;;;;;;;;;15.80;99.90;;;;;;5033059;28;19913;-68
2022/11/04 14:39:05;;;;;;;;;;;15.90;99.90;;;;;;5022288;28;19913;-67
2022/11/04 14:41:32;;;;;;;;;;;15.90;99.90;;;;;;5008122;28;19916;-66
2022/11/04 14:44:00;;;;;;;;;;;15.90;99.90;;;;;;5005263;28;19916;-67
2022/11/04 14:46:35;;;;;;;;;;;15.90;99.90;;;;;;5022836;28;20012;-65
2022/11/04 14:49:02;;;;;;;;;;;15.90;99.90;;;;;;5022659;28;20007;-65
2022/11/04 14:51:38;;;;;;;;;;;15.90;99.90;;;;;;5022449;28;19912;-67
2022/11/04 14:54:24;;;;;;;;;;;15.90;99.90;;;;;;5021971;28;19917;-67
2022/11/04 14:56:51;;;;;;;;;;;15.90;99.90;;;;;;5021591;28;19909;-64
2022/11/04 14:59:21;;;;;;;;;;;15.90;99.90;;;;;;5021825;28;19909;-64
2022/11/04 15:01:51;;;;;;;;;;;15.90;99.90;;;;;;5004101;28;19909;-64
2022/11/04 15:04:20;;;;;;;;;;;15.80;99.90;;;;;;5022115;28;19909;-65
2022/11/04 15:07:00;;;;;;;;;;;15.80;99.90;;;;;;5004597;28;19913;-65